Time;durP1;ratioP1;P1;durP2;ratioP2;P2;SDS_P1;SDS_P2;PMS_P1;PMS_P2;Temp;Humidity;BMP_temperature;BMP_pressure;BME280_temperature;BME280_humidity;BME280_pressure;Samples;Min_cycle;Max_cycle;Signal;HPM_P1;HPM_P2
2023/12/08 00:01:53;;;;;;;;;;;6.60;57.90;;;4.64;61.96;101456.19;12244926;19;19943;-86
2023/12/08 00:05:54;;;;;;;;;;;6.20;57.80;;;4.46;62.09;101410.00;12246743;19;19982;-86
2023/12/08 00:09:56;;;;;;;;;;;6.30;57.80;;;4.60;62.07;101436.44;12246307;19;20365;-86
2023/12/08 00:13:57;;;;;;;;;;;6.20;57.70;;;4.60;61.87;101433.84;12255384;19;20263;-86
2023/12/08 00:17:59;;;;;;;;;;;6.20;57.60;;;4.57;61.90;101433.91;12258895;19;20425;-86
2023/12/08 00:22:02;;;;;;;;;;;6.20;57.80;;;4.48;61.96;101417.69;12254445;19;19919;-86
2023/12/08 00:26:03;;;;;;;;;;;6.20;57.90;;;4.39;61.93;101409.22;12255840;19;20353;-86
2023/12/08 00:30:05;;;;;;;;;;;6.20;57.80;;;4.41;62.11;101417.81;12255508;19;20325;-86
2023/12/08 00:34:07;;;;;;;;;;;6.10;57.90;;;4.30;61.86;101391.31;12256698;19;20377;-87
2023/12/08 00:38:09;;;;;;;;;;;6.10;57.90;;;4.39;61.95;101409.22;12257226;19;20358;-86
2023/12/08 00:42:11;;;;;;;;;;;6.10;57.90;;;4.50;61.99;101423.69;12253197;19;19919;-86
2023/12/08 00:46:15;;;;;;;;;;;6.10;58.00;;;4.55;61.89;101414.97;12253144;19;19914;-86
2023/12/08 00:50:17;;;;;;;;;;;6.10;58.00;;;4.54;61.93;101418.44;12254331;19;20392;-86
2023/12/08 00:54:19;;;;;;;;;;;6.10;57.90;;;4.54;62.14;101413.28;12257216;19;19926;-86
2023/12/08 00:58:20;;;;;;;;;;;6.40;58.00;;;4.35;61.89;101379.16;12256717;19;19946;-86
2023/12/08 01:02:22;;;;;;;;;;;6.20;58.00;;;4.55;61.96;101406.38;12252236;19;19907;-86
2023/12/08 01:06:24;;;;;;;;;;;6.20;58.00;;;4.18;61.96;101338.09;12253856;19;19927;-86
2023/12/08 01:10:25;;;;;;;;;;;6.20;58.00;;;4.60;62.19;101407.97;12253354;19;19915;-87
2023/12/08 01:14:27;;;;;;;;;;;6.30;58.10;;;4.50;61.96;101387.50;12252720;19;20442;-86
2023/12/08 01:18:29;;;;;;;;;;;6.20;58.10;;;4.62;62.01;101400.22;12254900;19;19907;-86
2023/12/08 01:22:30;;;;;;;;;;;6.20;58.10;;;4.53;62.00;101384.84;12251407;19;20297;-86
2023/12/08 01:26:32;;;;;;;;;;;6.30;58.10;;;4.65;62.01;101400.13;12251371;19;19907;-86
2023/12/08 01:30:33;;;;;;;;;;;6.20;58.10;;;4.61;62.09;101385.53;12251972;19;19931;-86
2023/12/08 01:34:35;;;;;;;;;;;6.20;58.10;;;4.67;61.93;101393.19;12254002;19;19940;-86
2023/12/08 01:38:37;;;;;;;;;;;6.20;58.10;;;4.65;62.18;101393.22;12255186;19;20317;-86
2023/12/08 01:42:38;;;;;;;;;;;6.20;58.10;;;4.62;61.99;101380.34;12256169;19;19910;-86
2023/12/08 01:46:40;;;;;;;;;;;6.20;58.10;;;4.63;62.15;101381.22;12248474;19;19929;-86
2023/12/08 01:50:41;;;;;;;;;;;6.20;58.10;;;4.40;62.05;101337.69;12249636;19;19915;-86
2023/12/08 01:54:43;;;;;;;;;;;6.30;58.10;;;4.41;62.24;101340.25;12253683;19;19922;-86
2023/12/08 01:58:45;;;;;;;;;;;6.30;58.20;;;4.55;61.98;101363.25;12252459;19;19918;-86
2023/12/08 02:02:46;;;;;;;;;;;6.20;58.10;;;4.48;62.19;101345.28;12252919;19;19911;-86
2023/12/08 02:06:48;;;;;;;;;;;6.20;58.10;;;4.53;62.04;101351.22;12251654;19;19924;-86
2023/12/08 02:10:49;;;;;;;;;;;6.20;58.10;;;4.58;62.06;101352.00;12251591;19;19911;-87
2023/12/08 02:14:51;;;;;;;;;;;6.20;58.10;;;4.56;62.23;101349.41;12254761;19;19911;-86
2023/12/08 02:18:53;;;;;;;;;;;6.20;58.10;;;4.59;61.92;101343.34;12252562;19;19940;-86
2023/12/08 02:22:55;;;;;;;;;;;6.20;58.10;;;4.62;62.27;101345.88;12251223;19;19919;-86
2023/12/08 02:26:56;;;;;;;;;;;6.20;58.10;;;4.52;62.22;101321.94;12250564;19;19921;-86
2023/12/08 02:30:59;;;;;;;;;;;6.50;58.30;;;4.46;62.23;101309.13;12248696;19;19911;-86
2023/12/08 02:35:04;;;;;;;;;;;6.20;58.10;;;4.53;62.30;101310.69;12250445;19;19958;-86
2023/12/08 02:39:07;;;;;;;;;;;6.20;58.10;;;4.61;62.08;101307.94;12246256;19;19934;-86
2023/12/08 02:43:09;;;;;;;;;;;6.20;58.20;;;4.66;62.28;101317.31;12249756;19;19918;-86
2023/12/08 02:47:11;;;;;;;;;;;6.20;58.20;;;4.64;62.28;101305.28;12247821;19;19918;-86
2023/12/08 02:51:12;;;;;;;;;;;6.30;58.30;;;4.72;62.07;101318.06;12246524;19;20318;-86
2023/12/08 02:55:14;;;;;;;;;;;6.30;58.30;;;4.63;62.28;101308.78;12248575;19;19922;-86
2023/12/08 02:59:15;;;;;;;;;;;6.30;58.30;;;4.60;62.10;101285.56;12249049;19;20309;-86
2023/12/08 03:03:16;;;;;;;;;;;6.40;58.30;;;4.62;62.16;101291.56;12248290;19;19919;-86
2023/12/08 03:07:18;;;;;;;;;;;6.40;58.30;;;4.66;62.25;101290.59;12245654;19;19922;-86
2023/12/08 03:11:20;;;;;;;;;;;6.30;58.30;;;4.79;62.17;101317.06;12245602;19;19919;-86
2023/12/08 03:15:23;;;;;;;;;;;6.30;58.30;;;4.75;62.16;101298.19;12249162;19;19918;-86
2023/12/08 03:19:24;;;;;;;;;;;6.40;58.30;;;4.75;62.08;101294.72;12246842;19;19918;-86
2023/12/08 03:23:26;;;;;;;;;;;6.40;58.30;;;4.77;62.29;101301.56;12248442;19;19919;-86
2023/12/08 03:27:27;;;;;;;;;;;6.40;58.30;;;4.78;62.12;101302.41;12243333;19;19990;-86
2023/12/08 03:31:30;;;;;;;;;;;6.40;58.30;;;4.75;62.08;101295.59;12244476;19;19978;-86
2023/12/08 03:35:32;;;;;;;;;;;6.60;58.30;;;4.77;62.22;101293.81;12246662;19;20333;-86
2023/12/08 03:39:33;;;;;;;;;;;6.40;58.40;;;4.76;62.12;101286.09;12244465;19;19996;-86
2023/12/08 03:43:35;;;;;;;;;;;6.40;58.30;;;4.73;62.07;101268.91;12249702;19;19935;-86
2023/12/08 03:47:36;;;;;;;;;;;6.30;58.30;;;4.66;62.39;101255.22;12253014;19;19911;-86
2023/12/08 03:51:38;;;;;;;;;;;6.40;58.30;;;4.79;62.29;101275.66;12257668;19;19907;-86
2023/12/08 03:55:40;;;;;;;;;;;6.50;58.40;;;4.75;62.31;101261.97;12263336;19;19915;-86
2023/12/08 03:59:42;;;;;;;;;;;6.40;58.30;;;4.66;62.19;101234.53;12261303;19;19922;-86
2023/12/08 04:03:44;;;;;;;;;;;6.50;58.50;;;4.74;62.20;101242.13;12260773;19;19919;-86
2023/12/08 04:07:45;;;;;;;;;;;6.40;58.40;;;4.74;62.36;101239.53;12257197;19;20405;-86
2023/12/08 04:11:47;;;;;;;;;;;6.40;58.40;;;4.72;62.22;101238.72;12257773;19;20398;-86
2023/12/08 04:15:49;;;;;;;;;;;6.40;58.40;;;4.71;62.42;101229.28;12259098;19;19922;-86
2023/12/08 04:19:51;;;;;;;;;;;6.40;58.40;;;4.81;62.14;101246.28;12257769;19;20267;-86
2023/12/08 04:23:53;;;;;;;;;;;6.40;58.30;;;4.58;62.26;101204.56;12257809;19;19947;-86
2023/12/08 04:27:54;;;;;;;;;;;6.40;58.30;;;4.84;62.31;101251.38;12258867;19;19930;-86
2023/12/08 04:31:56;;;;;;;;;;;6.70;58.50;;;4.82;62.11;101221.25;12253164;19;20280;-86
2023/12/08 04:35:58;;;;;;;;;;;6.40;58.30;;;4.84;62.37;101211.75;12257741;19;19933;-86
2023/12/08 04:39:59;;;;;;;;;;;6.40;58.40;;;4.83;62.41;101195.38;12255178;19;20320;-86
2023/12/08 04:44:01;;;;;;;;;;;6.40;58.40;;;4.88;62.37;101197.81;12257710;19;19915;-86
2023/12/08 04:48:03;;;;;;;;;;;6.40;58.40;;;4.79;62.30;101174.78;12257267;19;19914;-86
2023/12/08 04:52:05;;;;;;;;;;;6.40;58.30;;;4.60;62.29;101127.81;12253325;19;19962;-86
2023/12/08 04:56:07;;;;;;;;;;;6.40;58.30;;;4.81;62.27;101154.91;12256229;19;19919;-86
2023/12/08 05:00:09;;;;;;;;;;;6.40;58.30;;;4.77;62.31;101148.06;12252628;19;20004;-86
2023/12/08 05:04:11;;;;;;;;;;;6.40;58.40;;;4.81;62.23;101153.16;12256772;19;20318;-86
2023/12/08 05:08:13;;;;;;;;;;;6.40;58.40;;;4.81;62.25;101153.16;12255151;19;19926;-86
2023/12/08 05:12:14;;;;;;;;;;;6.40;58.40;;;4.62;62.26;101126.88;12252944;19;19915;-86
2023/12/08 05:16:16;;;;;;;;;;;6.40;58.60;;;4.56;62.34;101128.75;12254830;19;19922;-86
2023/12/08 05:20:18;;;;;;;;;;;6.30;58.60;;;4.72;62.53;101166.28;12255056;19;19914;-86
2023/12/08 05:24:20;;;;;;;;;;;6.40;58.60;;;4.80;62.27;101185.06;12254543;19;19923;-86
2023/12/08 05:28:21;;;;;;;;;;;6.30;58.50;;;4.86;62.40;101174.59;12256881;19;19932;-86
2023/12/08 05:32:23;;;;;;;;;;;6.40;58.60;;;4.81;62.23;101163.50;12246242;19;20294;-86
2023/12/08 05:36:25;;;;;;;;;;;6.40;58.50;;;4.81;62.35;101162.66;12251950;19;19915;-87
2023/12/08 05:40:26;;;;;;;;;;;6.40;58.50;;;4.77;62.24;101161.00;12251154;19;20253;-86
2023/12/08 05:44:28;;;;;;;;;;;6.40;58.40;;;4.66;62.36;101144.00;12253510;19;19932;-86
2023/12/08 05:48:29;;;;;;;;;;;6.50;58.40;;;4.67;62.15;101147.44;12251579;19;19915;-86
2023/12/08 05:52:31;;;;;;;;;;;6.60;58.50;;;4.59;62.23;101146.78;12251848;19;19923;-86
2023/12/08 05:56:33;;;;;;;;;;;6.60;58.40;;;4.90;62.16;101182.28;12253553;19;20255;-86
2023/12/08 06:00:34;;;;;;;;;;;6.50;58.30;;;4.84;62.44;101171.19;12251219;19;19974;-86
2023/12/08 06:04:36;;;;;;;;;;;6.40;58.30;;;4.58;62.37;101135.59;12250995;19;19929;-86
2023/12/08 06:08:38;;;;;;;;;;;6.70;58.40;;;4.79;62.23;101167.84;12251240;19;19939;-86
2023/12/08 06:12:39;;;;;;;;;;;6.40;58.30;;;4.88;62.25;101188.31;12250276;19;19915;-86
2023/12/08 06:16:41;;;;;;;;;;;6.40;58.30;;;4.62;62.37;101136.38;12252808;19;19951;-86
2023/12/08 06:20:43;;;;;;;;;;;6.70;58.40;;;4.55;62.08;101129.66;12250248;19;19926;-86
2023/12/08 06:24:45;;;;;;;;;;;6.40;58.20;;;4.84;62.09;101180.69;12251979;19;20590;-85
2023/12/08 06:28:46;;;;;;;;;;;6.40;58.10;;;4.76;62.19;101186.03;12252711;19;19922;-86
2023/12/08 06:32:48;;;;;;;;;;;6.40;58.10;;;4.69;62.17;101179.31;12249934;19;19927;-86
2023/12/08 06:36:49;;;;;;;;;;;6.40;58.10;;;4.78;62.32;101202.38;12250663;19;19940;-86
2023/12/08 06:40:51;;;;;;;;;;;6.60;58.20;;;4.64;62.00;101147.50;12249369;19;19974;-86
2023/12/08 06:44:53;;;;;;;;;;;6.30;58.00;;;4.64;62.13;101158.75;12249211;19;19940;-86
2023/12/08 06:48:54;;;;;;;;;;;6.40;58.00;;;4.59;62.34;101157.13;12249265;19;19915;-86
2023/12/08 06:52:56;;;;;;;;;;;6.40;58.00;;;4.27;62.36;101119.94;12248927;19;20301;-85
2023/12/08 06:56:58;;;;;;;;;;;6.10;57.90;;;4.53;62.33;101158.09;12251455;19;19919;-85
2023/12/08 07:00:59;;;;;;;;;;;6.30;58.10;;;4.16;62.30;101101.25;12244598;19;19925;-85
2023/12/08 07:05:00;;;;;;;;;;;6.00;57.90;;;4.31;62.25;101126.72;12247386;19;19919;-85
2023/12/08 07:09:02;;;;;;;;;;;6.00;58.10;;;4.26;62.21;101128.56;12248244;19;19926;-85
2023/12/08 07:13:04;;;;;;;;;;;6.00;58.20;;;4.36;62.29;101155.91;12247705;19;19910;-85
2023/12/08 07:17:06;;;;;;;;;;;5.90;58.10;;;4.25;62.28;101142.38;12248291;19;20348;-85
2023/12/08 07:21:07;;;;;;;;;;;5.90;58.20;;;4.27;62.43;101145.78;12242418;19;19921;-85
2023/12/08 07:25:11;;;;;;;;;;;5.90;58.30;;;4.36;62.29;101148.16;12243693;19;19982;-85
2023/12/08 07:29:13;;;;;;;;;;;5.90;58.30;;;4.31;62.24;101147.41;12244792;19;19919;-86
2023/12/08 07:33:14;;;;;;;;;;;6.10;58.30;;;4.20;62.27;101129.56;12244281;19;19916;-85
2023/12/08 07:37:16;;;;;;;;;;;5.90;58.30;;;4.31;62.20;101144.84;12244773;19;19927;-85
2023/12/08 07:41:17;;;;;;;;;;;5.90;58.10;;;4.07;62.26;101104.03;12244778;19;19958;-85
2023/12/08 07:45:19;;;;;;;;;;;5.80;58.10;;;4.20;62.32;101139.91;12244614;19;19925;-85
2023/12/08 07:49:20;;;;;;;;;;;5.90;58.10;;;4.21;62.42;101159.72;12245953;19;19907;-85
2023/12/08 07:53:22;;;;;;;;;;;6.00;58.20;;;4.12;62.21;101135.78;12244454;19;19919;-85
2023/12/08 07:57:24;;;;;;;;;;;5.80;58.10;;;3.98;62.33;101103.34;12245369;19;19922;-85
2023/12/08 08:01:25;;;;;;;;;;;5.80;58.00;;;4.11;62.21;101124.59;12242618;19;20337;-84
2023/12/08 08:05:27;;;;;;;;;;;5.90;58.20;;;4.07;62.17;101129.88;12245247;19;19927;-83
2023/12/08 08:09:29;;;;;;;;;;;5.80;58.10;;;3.94;62.09;101111.19;12245232;19;19938;-82
2023/12/08 08:13:30;;;;;;;;;;;5.70;58.10;;;3.79;62.12;101081.38;12246223;19;19919;-84
2023/12/08 08:17:32;;;;;;;;;;;5.70;58.10;;;3.89;62.35;101100.97;12244896;19;19940;-83
2023/12/08 08:21:34;;;;;;;;;;;5.60;58.10;;;3.95;62.33;101126.66;12243920;19;19919;-83
2023/12/08 08:25:35;;;;;;;;;;;5.60;58.20;;;3.89;62.42;101113.88;12246427;19;20336;-84
2023/12/08 08:29:37;;;;;;;;;;;5.60;58.20;;;3.96;62.33;101133.53;12243638;19;20269;-85
2023/12/08 08:33:40;;;;;;;;;;;5.70;58.20;;;4.02;62.32;101132.53;12252075;19;19978;-84
2023/12/08 08:37:41;;;;;;;;;;;5.50;58.20;;;3.99;62.38;101124.84;12257771;19;19918;-85
2023/12/08 08:41:44;;;;;;;;;;;5.60;58.20;;;3.96;62.35;101107.69;12252384;19;20350;-85
2023/12/08 08:45:46;;;;;;;;;;;5.60;58.30;;;3.99;62.42;101102.44;12254520;19;19978;-83
2023/12/08 08:49:48;;;;;;;;;;;5.60;58.20;;;4.00;62.35;101108.50;12255391;19;19922;-84
2023/12/08 08:53:49;;;;;;;;;;;5.90;58.40;;;3.98;62.50;101093.00;12255633;19;19979;-84
2023/12/08 08:57:51;;;;;;;;;;;5.60;58.20;;;3.77;62.47;101062.47;12253600;19;19984;-84
2023/12/08 09:01:53;;;;;;;;;;;5.60;58.10;;;3.79;62.51;101065.03;12250355;19;19940;-84
2023/12/08 09:05:55;;;;;;;;;;;5.60;58.30;;;3.93;62.35;101074.19;12249290;19;19933;-84
2023/12/08 09:09:57;;;;;;;;;;;5.60;58.30;;;3.90;62.55;101071.66;12250592;19;19919;-84
2023/12/08 09:13:58;;;;;;;;;;;5.60;58.20;;;3.78;62.51;101069.38;12254071;19;19919;-84
2023/12/08 09:18:00;;;;;;;;;;;5.80;58.30;;;4.02;62.32;101103.28;12252652;19;19927;-84
2023/12/08 09:22:03;;;;;;;;;;;5.70;58.20;;;3.83;62.43;101074.41;12249928;19;19911;-84
2023/12/08 09:26:04;;;;;;;;;;;5.70;58.10;;;4.01;62.43;101099.00;12249223;19;19922;-84
2023/12/08 09:30:06;;;;;;;;;;;5.90;58.30;;;3.93;62.56;101084.50;12249618;19;19919;-84
2023/12/08 09:34:08;;;;;;;;;;;5.60;58.10;;;4.03;62.40;101089.50;12252252;19;19923;-84
2023/12/08 09:38:09;;;;;;;;;;;5.70;58.20;;;4.02;62.45;101085.19;12253103;19;20249;-84
2023/12/08 09:42:21;;;;;;;;;;;5.60;58.20;;;3.83;62.43;101062.34;12246827;19;20338;-84
2023/12/08 09:46:23;;;;;;;;;;;5.60;58.20;;;3.80;62.36;101041.75;12248625;19;19990;-84
2023/12/08 09:50:26;;;;;;;;;;;5.70;58.10;;;3.90;62.39;101053.56;12250954;19;20326;-84
2023/12/08 09:54:28;;;;;;;;;;;5.70;58.10;;;4.04;62.38;101062.75;12250646;19;20279;-84
2023/12/08 09:58:30;;;;;;;;;;;5.60;58.20;;;4.02;62.38;101054.19;12251636;19;20259;-84
2023/12/08 10:02:32;;;;;;;;;;;5.60;58.20;;;3.97;62.52;101049.97;12252197;19;19930;-84
2023/12/08 10:06:34;;;;;;;;;;;5.60;58.10;;;3.71;62.50;101006.66;12250060;19;19919;-84
2023/12/08 10:10:37;;;;;;;;;;;5.60;58.10;;;3.66;62.28;100981.81;12247971;19;19918;-84
2023/12/08 10:14:54;;;;;;;;;;;5.70;58.10;;;4.01;62.52;101034.41;12250589;19;20314;-84
2023/12/08 10:19:06;;;;;;;;;;;5.60;58.10;;;4.01;62.43;101027.50;12249774;19;19927;-84
2023/12/08 10:23:07;;;;;;;;;;;5.60;58.10;;;3.98;62.51;101033.59;12249139;19;20329;-84
2023/12/08 10:27:09;;;;;;;;;;;5.60;58.10;;;4.05;62.43;101030.84;12247468;19;19928;-84
2023/12/08 10:31:11;;;;;;;;;;;5.60;58.10;;;3.98;62.42;101009.50;12246882;19;19960;-84
2023/12/08 10:35:13;;;;;;;;;;;5.60;58.00;;;3.95;62.47;100984.56;12247444;19;19923;-84
2023/12/08 10:39:17;;;;;;;;;;;5.80;58.10;;;4.11;62.54;101010.06;12250014;19;19922;-84
2023/12/08 10:43:23;;;;;;;;;;;5.70;58.10;;;4.11;62.58;100994.56;12249496;19;19955;-84
2023/12/08 10:47:25;;;;;;;;;;;5.70;58.10;;;4.03;62.41;100970.63;12247113;19;19923;-84
2023/12/08 10:51:27;;;;;;;;;;;5.70;58.40;;;4.07;62.65;100964.50;12245206;19;20533;-84
2023/12/08 10:55:28;;;;;;;;;;;6.00;58.20;;;4.03;62.65;100960.28;12247762;19;19923;-84
2023/12/08 10:59:31;;;;;;;;;;;5.80;58.10;;;4.10;62.42;100969.56;12246555;19;19918;-84
2023/12/08 11:03:34;;;;;;;;;;;5.80;58.20;;;4.15;62.50;100970.31;12246907;19;19922;-84
2023/12/08 11:07:38;;;;;;;;;;;5.80;58.10;;;4.11;62.69;100961.81;12244146;19;19919;-84
2023/12/08 11:11:47;;;;;;;;;;;6.10;58.40;;;4.27;62.66;100982.94;12244284;19;20346;-84
2023/12/08 11:16:10;;;;;;;;;;;5.90;58.30;;;4.24;62.48;100979.56;12247966;19;19926;-84
2023/12/08 11:20:13;;;;;;;;;;;5.90;58.10;;;4.27;62.42;100975.19;12243992;19;21871;-84
2023/12/08 11:24:14;;;;;;;;;;;5.90;58.10;;;4.01;62.49;100928.47;12246972;19;20321;-85
2023/12/08 11:28:42;;;;;;;;;;;5.90;58.10;;;4.23;62.54;100965.81;12246152;19;19923;-84
2023/12/08 11:33:10;;;;;;;;;;;5.90;58.10;;;4.34;62.44;100981.88;12246466;19;19978;-84
2023/12/08 11:37:11;;;;;;;;;;;5.90;58.00;;;4.29;62.53;100952.72;12243375;19;19935;-84
2023/12/08 11:41:15;;;;;;;;;;;5.90;58.00;;;4.31;62.73;100958.69;12244711;19;19915;-84
2023/12/08 11:45:17;;;;;;;;;;;6.00;58.00;;;4.28;62.73;100961.38;12242607;19;19919;-85
2023/12/08 11:49:19;;;;;;;;;;;6.30;58.20;;;4.31;62.59;100953.53;12244153;19;19942;-85
2023/12/08 11:53:22;;;;;;;;;;;6.00;58.00;;;4.22;62.42;100925.34;12243883;19;19911;-85
2023/12/08 11:57:23;;;;;;;;;;;6.00;58.00;;;4.38;62.40;100943.91;12244986;19;19970;-85
2023/12/08 12:01:25;;;;;;;;;;;6.00;58.00;;;4.42;62.43;100946.34;12242593;19;19975;-85
2023/12/08 12:05:27;;;;;;;;;;;6.10;58.00;;;4.41;62.59;100942.06;12244920;19;19921;-84
2023/12/08 12:09:29;;;;;;;;;;;6.00;57.90;;;4.18;62.62;100901.28;12251871;19;19997;-85
2023/12/08 12:13:32;;;;;;;;;;;6.10;57.90;;;4.40;62.60;100929.16;12256303;19;19919;-85
2023/12/08 12:17:34;;;;;;;;;;;6.20;58.00;;;4.18;62.54;100887.53;12260846;19;19926;-85
2023/12/08 12:21:36;;;;;;;;;;;6.00;57.90;;;4.21;62.52;100890.03;12255328;19;20281;-85
2023/12/08 12:25:38;;;;;;;;;;;6.00;57.90;;;4.48;62.62;100934.16;12253964;19;19961;-85
2023/12/08 12:29:41;;;;;;;;;;;6.40;58.10;;;4.41;62.64;100930.88;12252295;19;19918;-84
2023/12/08 12:33:44;;;;;;;;;;;6.10;57.90;;;4.34;62.52;100919.84;12255367;19;19974;-84
2023/12/08 12:37:46;;;;;;;;;;;6.10;57.90;;;4.50;62.49;100942.72;12256069;19;19944;-84
2023/12/08 12:41:47;;;;;;;;;;;6.10;57.90;;;4.48;62.62;100934.16;12249669;19;19931;-84
2023/12/08 12:45:51;;;;;;;;;;;6.10;57.90;;;4.52;62.59;100941.78;12253732;19;19919;-84
2023/12/08 12:50:07;;;;;;;;;;;6.20;58.00;;;4.59;62.40;100932.09;12252281;19;19930;-84
2023/12/08 12:54:09;;;;;;;;;;;6.20;58.00;;;4.55;62.46;100913.25;12253937;19;19926;-84
2023/12/08 12:58:20;;;;;;;;;;;6.20;57.90;;;4.58;62.67;100917.50;12250669;19;19929;-84
2023/12/08 13:02:27;;;;;;;;;;;6.20;57.90;;;4.46;62.37;100897.16;12250043;19;19911;-84
2023/12/08 13:06:33;;;;;;;;;;;6.20;57.90;;;4.48;62.40;100892.78;12250589;19;19922;-84
2023/12/08 13:10:34;;;;;;;;;;;6.20;57.80;;;4.43;62.55;100888.59;12250329;19;19928;-84
2023/12/08 13:14:36;;;;;;;;;;;6.20;57.80;;;4.29;62.42;100851.06;12251187;19;19922;-84
2023/12/08 13:18:45;;;;;;;;;;;6.50;57.90;;;4.28;62.60;100870.91;12252075;19;20360;-84
2023/12/08 13:22:46;;;;;;;;;;;6.20;57.90;;;4.36;62.35;100879.28;12253216;19;19911;-84
2023/12/08 13:26:48;;;;;;;;;;;6.30;57.90;;;4.50;62.39;100886.66;12250243;19;19970;-84
2023/12/08 13:30:49;;;;;;;;;;;6.20;57.90;;;4.50;62.43;100883.25;12250629;19;19946;-84
2023/12/08 13:34:50;;;;;;;;;;;6.50;58.00;;;4.58;62.37;100886.47;12253280;19;19915;-84
2023/12/08 13:38:52;;;;;;;;;;;6.20;57.80;;;4.64;62.50;100901.81;12253378;19;19907;-84
2023/12/08 13:42:53;;;;;;;;;;;6.20;57.80;;;4.59;62.49;100893.31;12250887;19;19945;-84
2023/12/08 13:46:55;;;;;;;;;;;6.20;57.80;;;4.56;62.29;100896.84;12249025;19;19957;-84
2023/12/08 13:50:57;;;;;;;;;;;6.50;57.90;;;4.65;62.53;100900.94;12248568;19;19919;-84
2023/12/08 13:54:58;;;;;;;;;;;6.30;57.80;;;4.60;62.40;100898.47;12253077;19;19922;-84
2023/12/08 13:59:00;;;;;;;;;;;6.30;57.80;;;4.65;62.38;100908.69;12249951;19;19939;-84
2023/12/08 14:03:03;;;;;;;;;;;6.30;57.80;;;4.54;62.61;100901.22;12250726;19;20368;-84
2023/12/08 14:07:04;;;;;;;;;;;6.20;57.80;;;4.63;62.36;100916.47;12248811;19;20291;-84
2023/12/08 14:11:06;;;;;;;;;;;6.30;57.80;;;4.63;62.58;100911.31;12248595;19;20333;-84
2023/12/08 14:15:08;;;;;;;;;;;6.30;57.90;;;4.36;62.31;100866.38;12249608;19;19951;-84
2023/12/08 14:19:09;;;;;;;;;;;6.30;57.80;;;4.68;62.28;100918.94;12249298;19;19919;-84
2023/12/08 14:23:11;;;;;;;;;;;6.40;57.90;;;4.58;62.35;100900.25;12249964;19;19940;-84
2023/12/08 14:27:13;;;;;;;;;;;6.30;57.80;;;4.62;62.46;100901.03;12248145;19;20304;-84
2023/12/08 14:31:14;;;;;;;;;;;6.20;57.70;;;4.53;62.53;100888.31;12246208;19;19915;-84
2023/12/08 14:35:16;;;;;;;;;;;6.20;57.70;;;4.62;62.34;100904.44;12249214;19;20623;-84
2023/12/08 14:39:18;;;;;;;;;;;6.20;57.70;;;4.59;62.53;100896.78;12248531;19;20330;-84
2023/12/08 14:43:19;;;;;;;;;;;6.20;57.70;;;4.63;62.56;100897.53;12247102;19;19919;-84
2023/12/08 14:47:20;;;;;;;;;;;6.20;57.70;;;4.60;62.42;100876.94;12246280;19;19936;-84
2023/12/08 14:51:23;;;;;;;;;;;6.30;57.80;;;4.64;62.28;100881.13;12244414;19;19919;-84
2023/12/08 14:55:24;;;;;;;;;;;6.20;57.70;;;4.59;62.35;100867.47;12246636;19;20030;-84
2023/12/08 14:59:25;;;;;;;;;;;6.20;57.70;;;4.53;62.32;100865.06;12245833;19;19915;-85
2023/12/08 15:03:27;;;;;;;;;;;6.40;57.80;;;4.51;62.27;100859.06;12248115;19;19923;-84
2023/12/08 15:07:28;;;;;;;;;;;6.20;57.70;;;4.61;62.54;100884.63;12242193;19;19949;-84
2023/12/08 15:11:29;;;;;;;;;;;6.20;57.70;;;4.43;62.28;100848.97;12245562;19;20247;-84
2023/12/08 15:15:31;;;;;;;;;;;6.20;57.70;;;4.60;62.48;100874.34;12247619;19;19954;-84
2023/12/08 15:19:32;;;;;;;;;;;6.20;57.70;;;4.31;62.35;100832.03;12246538;19;19914;-84
2023/12/08 15:23:36;;;;;;;;;;;6.40;57.80;;;4.60;62.27;100874.34;12246488;19;19911;-84
2023/12/08 15:27:38;;;;;;;;;;;6.20;57.70;;;4.32;62.38;100826.00;12239117;19;20380;-84
2023/12/08 15:31:39;;;;;;;;;;;6.20;57.80;;;4.58;62.26;100882.13;12247411;19;19919;-82
2023/12/08 15:35:41;;;;;;;;;;;6.20;57.70;;;4.54;62.33;100885.72;12247049;19;19922;-84
2023/12/08 15:39:42;;;;;;;;;;;6.20;57.70;;;4.54;62.30;100869.34;12245645;19;20326;-84
2023/12/08 15:43:44;;;;;;;;;;;6.20;57.80;;;4.60;62.32;100875.19;12243773;19;20008;-84
2023/12/08 15:47:46;;;;;;;;;;;6.20;58.10;;;4.59;62.21;100872.63;12244170;19;19919;-84
2023/12/08 15:51:47;;;;;;;;;;;6.50;57.90;;;4.60;61.99;100879.53;12241797;19;19929;-84
2023/12/08 15:55:49;;;;;;;;;;;6.50;57.80;;;4.64;62.34;100881.97;12244431;19;19918;-84
2023/12/08 15:59:51;;;;;;;;;;;6.40;57.80;;;4.63;62.27;100882.00;12243888;19;19998;-84
2023/12/08 16:03:53;;;;;;;;;;;6.40;57.80;;;4.42;62.41;100848.09;12244470;19;19941;-84
2023/12/08 16:07:54;;;;;;;;;;;6.20;57.70;;;4.58;62.23;100876.13;12240875;19;19911;-84
2023/12/08 16:11:56;;;;;;;;;;;6.20;57.70;;;4.43;62.33;100844.63;12240349;19;19914;-84
2023/12/08 16:15:57;;;;;;;;;;;6.20;57.70;;;4.43;62.51;100851.56;12244550;19;19915;-84
2023/12/08 16:19:58;;;;;;;;;;;6.20;57.70;;;4.56;62.45;100863.22;12243080;19;20031;-85
2023/12/08 16:24:00;;;;;;;;;;;6.30;57.80;;;4.71;62.24;100892.16;12243090;19;19926;-84
2023/12/08 16:28:01;;;;;;;;;;;6.20;57.70;;;4.72;62.44;100889.50;12241542;19;19918;-84
2023/12/08 16:32:03;;;;;;;;;;;6.50;57.80;;;4.62;62.24;100865.66;12239255;19;20269;-84
2023/12/08 16:36:04;;;;;;;;;;;6.20;57.70;;;4.75;62.36;100891.16;12244616;19;19923;-84
2023/12/08 16:40:06;;;;;;;;;;;6.30;57.70;;;4.71;62.45;100886.97;12241068;19;20596;-84
2023/12/08 16:44:08;;;;;;;;;;;6.30;57.70;;;4.37;62.53;100841.34;12242372;19;19919;-85
2023/12/08 16:48:09;;;;;;;;;;;6.30;57.70;;;4.62;62.49;100881.16;12237086;19;20334;-84
2023/12/08 16:52:10;;;;;;;;;;;6.20;57.70;;;4.46;62.42;100848.88;12238992;19;20234;-84
2023/12/08 16:56:12;;;;;;;;;;;6.30;57.70;;;4.74;62.42;100887.72;12254397;19;19918;-84
2023/12/08 17:00:14;;;;;;;;;;;6.30;57.70;;;4.62;62.41;100863.06;12251769;19;19950;-84
2023/12/08 17:04:15;;;;;;;;;;;6.30;57.60;;;4.58;62.27;100866.63;12253439;19;20004;-85
2023/12/08 17:08:17;;;;;;;;;;;6.60;57.70;;;4.70;62.41;100877.50;12251528;19;20279;-84
2023/12/08 17:12:18;;;;;;;;;;;6.50;57.70;;;4.66;62.38;100887.09;12250119;19;19922;-85
2023/12/08 17:16:19;;;;;;;;;;;6.40;57.70;;;4.74;62.20;100895.50;12255791;19;20241;-85
2023/12/08 17:20:23;;;;;;;;;;;6.30;57.70;;;4.68;62.28;100893.09;12252853;19;19930;-85
2023/12/08 17:24:24;;;;;;;;;;;6.30;57.70;;;4.73;62.43;100901.56;12252946;19;19947;-85
2023/12/08 17:28:25;;;;;;;;;;;6.30;57.70;;;4.64;62.40;100894.03;12247579;19;19919;-85
2023/12/08 17:32:27;;;;;;;;;;;6.40;57.70;;;4.77;62.39;100904.91;12243883;19;20263;-85
2023/12/08 17:36:28;;;;;;;;;;;6.60;57.80;;;4.69;62.20;100889.59;12253736;19;19926;-85
2023/12/08 17:40:30;;;;;;;;;;;6.30;57.70;;;4.73;62.44;100892.97;12248851;19;19935;-85
2023/12/08 17:44:35;;;;;;;;;;;6.30;57.70;;;4.75;62.36;100909.25;12248457;19;19914;-85
2023/12/08 17:48:37;;;;;;;;;;;6.30;57.70;;;4.72;62.27;100915.38;12252404;19;19922;-85
2023/12/08 17:52:38;;;;;;;;;;;6.30;57.70;;;4.69;62.44;100914.63;12252376;19;19922;-85
2023/12/08 17:56:39;;;;;;;;;;;6.30;57.70;;;4.75;62.34;100924.78;12250867;19;19926;-85
2023/12/08 18:00:41;;;;;;;;;;;6.30;57.70;;;4.71;62.12;100924.03;12249310;19;19918;-85
2023/12/08 18:04:42;;;;;;;;;;;6.30;57.70;;;4.55;62.07;100892.56;12249933;19;20269;-84
2023/12/08 18:08:44;;;;;;;;;;;6.30;57.70;;;4.65;62.27;100901.78;12251607;19;20663;-84
2023/12/08 18:12:46;;;;;;;;;;;6.50;57.80;;;4.58;62.23;100901.97;12249101;19;20334;-84
2023/12/08 18:16:47;;;;;;;;;;;6.20;57.70;;;4.61;62.27;100901.88;12251782;19;20010;-84
2023/12/08 18:20:49;;;;;;;;;;;6.20;57.70;;;4.61;62.31;100917.41;12247948;19;20323;-84
2023/12/08 18:24:50;;;;;;;;;;;6.10;57.60;;;4.56;62.13;100903.75;12252807;19;19922;-84
2023/12/08 18:28:51;;;;;;;;;;;6.20;57.70;;;4.42;62.28;100884.28;12249707;19;19937;-84
2023/12/08 18:32:53;;;;;;;;;;;6.40;57.80;;;4.54;62.28;100921.06;12249863;19;19935;-84